Time;durP1;ratioP1;P1;durP2;ratioP2;P2;SDS_P1;SDS_P2;PMS_P1;PMS_P2;Temp;Humidity;BMP_temperature;BMP_pressure;BME280_temperature;BME280_humidity;BME280_pressure;Samples;Min_cycle;Max_cycle;Signal;HPM_P1;HPM_P2
2021/08/05 00:01:53;;;;;;;10.18;8.77;;;;;;;;;;4345453;32;20186;-80
2021/08/05 00:04:24;;;;;;;11.65;9.20;;;;;;;;;;4331467;32;20159;-81
2021/08/05 00:06:56;;;;;;;11.95;8.82;;;;;;;;;;4332094;32;20263;-81
2021/08/05 00:09:35;;;;;;;10.73;8.15;;;;;;;;;;4331875;33;20178;-80
2021/08/05 00:12:15;;;;;;;11.05;9.88;;;;;;;;;;4332429;33;20237;-80
2021/08/05 00:14:42;;;;;;;12.00;10.40;;;;;;;;;;4345797;33;20177;-80
2021/08/05 00:17:10;;;;;;;10.93;9.70;;;;;;;;;;4331730;32;20186;-80
2021/08/05 00:19:37;;;;;;;12.70;10.13;;;;;;;;;;4345604;33;20221;-79
2021/08/05 00:22:02;;;;;;;12.02;10.30;;;;;;;;;;4331634;33;20644;-81
2021/08/05 00:24:27;;;;;;;11.82;9.73;;;;;;;;;;4331181;32;20155;-81
2021/08/05 00:26:53;;;;;;;13.70;10.77;;;;;;;;;;4331925;33;20557;-80
2021/08/05 00:29:28;;;;;;;12.10;8.93;;;;;;;;;;4331282;32;20181;-80
2021/08/05 00:32:08;;;;;;;11.55;8.98;;;;;;;;;;4331447;33;20147;-80
2021/08/05 00:34:36;;;;;;;10.90;8.48;;;;;;;;;;4331498;33;20155;-80
2021/08/05 00:37:02;;;;;;;10.02;8.68;;;;;;;;;;4331053;33;20159;-80
2021/08/05 00:39:27;;;;;;;10.60;8.77;;;;;;;;;;4331140;33;20467;-80
2021/08/05 00:41:58;;;;;;;13.38;10.95;;;;;;;;;;4331300;32;20694;-80
2021/08/05 00:44:25;;;;;;;15.77;12.93;;;;;;;;;;4331553;32;20243;-79
2021/08/05 00:46:58;;;;;;;14.52;12.68;;;;;;;;;;4344323;33;20135;-79
2021/08/05 00:49:23;;;;;;;13.00;9.77;;;;;;;;;;4330761;33;20224;-80
2021/08/05 00:52:01;;;;;;;12.45;10.23;;;;;;;;;;4343999;33;20139;-80
2021/08/05 00:54:26;;;;;;;12.45;9.60;;;;;;;;;;4331248;32;20470;-80
2021/08/05 00:57:12;;;;;;;10.98;9.88;;;;;;;;;;4330350;33;20160;-81
2021/08/05 00:59:40;;;;;;;12.82;10.73;;;;;;;;;;4344767;33;20163;-80
2021/08/05 01:02:10;;;;;;;17.12;11.40;;;;;;;;;;4330766;32;20182;-81
2021/08/05 01:04:35;;;;;;;12.82;9.60;;;;;;;;;;4330588;32;20168;-81
2021/08/05 01:07:13;;;;;;;11.18;9.30;;;;;;;;;;4330776;32;20174;-79
2021/08/05 01:09:50;;;;;;;11.27;9.70;;;;;;;;;;4331131;33;20159;-79
2021/08/05 01:12:35;;;;;;;13.85;10.10;;;;;;;;;;4330442;33;20488;-79
2021/08/05 01:15:25;;;;;;;12.73;10.40;;;;;;;;;;4331546;32;20195;-79
2021/08/05 01:17:53;;;;;;;17.25;12.02;;;;;;;;;;4337407;33;20547;-79
2021/08/05 01:20:21;;;;;;;15.18;13.25;;;;;;;;;;4357785;32;20712;-79
2021/08/05 01:23:10;;;;;;;13.25;10.82;;;;;;;;;;4357538;32;20469;-78
2021/08/05 01:25:52;;;;;;;12.37;9.20;;;;;;;;;;4358006;32;20580;-79
2021/08/05 01:28:17;;;;;;;13.68;12.00;;;;;;;;;;4357783;32;20457;-79
2021/08/05 01:30:44;;;;;;;17.60;13.35;;;;;;;;;;4357067;32;20193;-79
2021/08/05 01:33:10;;;;;;;15.68;12.63;;;;;;;;;;4344946;33;20185;-79
2021/08/05 01:35:40;;;;;;;14.70;12.00;;;;;;;;;;4359496;33;20139;-79
2021/08/05 01:38:07;;;;;;;15.27;12.27;;;;;;;;;;4345061;33;20504;-79
2021/08/05 01:40:36;;;;;;;14.55;12.35;;;;;;;;;;4345003;33;20209;-79
2021/08/05 01:43:02;;;;;;;18.30;14.32;;;;;;;;;;4345529;33;20571;-79
2021/08/05 01:45:28;;;;;;;16.20;12.40;;;;;;;;;;4345703;33;20178;-79
2021/08/05 01:47:54;;;;;;;12.75;10.38;;;;;;;;;;4344943;33;20238;-79
2021/08/05 01:50:20;;;;;;;13.23;11.15;;;;;;;;;;4345081;33;20205;-79
2021/08/05 01:52:45;;;;;;;12.45;10.48;;;;;;;;;;4357260;32;20287;-79
2021/08/05 01:55:22;;;;;;;12.98;10.75;;;;;;;;;;4357261;32;20186;-79
2021/08/05 01:57:49;;;;;;;14.27;11.35;;;;;;;;;;4359242;32;20123;-79
2021/08/05 02:00:14;;;;;;;18.98;14.40;;;;;;;;;;4357338;32;20181;-79
2021/08/05 02:02:40;;;;;;;14.25;11.20;;;;;;;;;;4357143;32;20205;-79
2021/08/05 02:05:06;;;;;;;14.10;11.73;;;;;;;;;;4357176;32;20163;-79
2021/08/05 02:07:37;;;;;;;13.85;11.27;;;;;;;;;;4356652;33;20190;-79
2021/08/05 02:10:14;;;;;;;13.02;11.25;;;;;;;;;;4344696;33;20181;-79
2021/08/05 02:12:42;;;;;;;13.13;11.38;;;;;;;;;;4357185;32;20215;-79
2021/08/05 02:15:07;;;;;;;12.60;10.95;;;;;;;;;;4357120;32;20171;-79
2021/08/05 02:17:34;;;;;;;15.05;11.57;;;;;;;;;;4348855;32;20197;-79
2021/08/05 02:20:00;;;;;;;14.98;11.88;;;;;;;;;;4358085;32;20204;-79
2021/08/05 02:22:28;;;;;;;12.88;10.93;;;;;;;;;;4357680;32;20186;-79
2021/08/05 02:24:54;;;;;;;14.13;10.77;;;;;;;;;;4356896;32;20579;-79
2021/08/05 02:27:20;;;;;;;14.00;11.05;;;;;;;;;;4356889;32;20241;-79
2021/08/05 02:29:45;;;;;;;11.10;9.77;;;;;;;;;;4344588;32;20167;-79
2021/08/05 02:32:14;;;;;;;14.15;10.48;;;;;;;;;;4356938;32;20190;-79
2021/08/05 02:34:39;;;;;;;12.25;10.68;;;;;;;;;;4356868;33;20220;-79
2021/08/05 02:37:13;;;;;;;17.10;11.90;;;;;;;;;;4357179;32;20171;-79
2021/08/05 02:39:40;;;;;;;14.00;11.70;;;;;;;;;;4358291;32;20163;-79
2021/08/05 02:42:05;;;;;;;13.05;11.27;;;;;;;;;;4356698;32;20467;-79
2021/08/05 02:44:41;;;;;;;18.25;14.87;;;;;;;;;;4357806;32;20220;-79
2021/08/05 02:47:07;;;;;;;12.77;11.27;;;;;;;;;;4357474;32;20246;-79
2021/08/05 02:49:33;;;;;;;15.02;12.32;;;;;;;;;;4356697;32;20152;-79
2021/08/05 02:52:02;;;;;;;16.30;12.45;;;;;;;;;;4356698;32;20182;-79
2021/08/05 02:54:29;;;;;;;13.32;11.55;;;;;;;;;;4356682;32;20171;-79
2021/08/05 02:56:55;;;;;;;18.08;15.45;;;;;;;;;;4356571;32;20230;-79
2021/08/05 02:59:23;;;;;;;17.20;14.73;;;;;;;;;;4356571;32;20543;-79
2021/08/05 03:01:58;;;;;;;;;;;;;;;;;;;;;
2021/08/05 03:04:32;;;;;;;20.65;16.40;;;;;;;;;;4358182;33;20134;-79
2021/08/05 03:07:13;;;;;;;18.90;15.95;;;;;;;;;;4356778;32;20156;-79
2021/08/05 03:09:48;;;;;;;16.37;13.07;;;;;;;;;;4357388;32;20596;-79
2021/08/05 03:12:14;;;;;;;15.32;12.82;;;;;;;;;;4356528;32;20584;-79
2021/08/05 03:14:39;;;;;;;16.55;13.50;;;;;;;;;;4356522;32;20181;-79
2021/08/05 03:17:04;;;;;;;19.00;15.68;;;;;;;;;;4356081;32;20206;-79
2021/08/05 03:19:30;;;;;;;19.58;15.70;;;;;;;;;;4356334;32;20202;-79
2021/08/05 03:22:01;;;;;;;19.23;15.65;;;;;;;;;;4356633;32;20186;-79
2021/08/05 03:24:27;;;;;;;17.05;13.90;;;;;;;;;;4356351;32;20224;-79
2021/08/05 03:26:52;;;;;;;16.75;13.38;;;;;;;;;;4356815;32;20175;-79
2021/08/05 03:29:18;;;;;;;20.42;16.95;;;;;;;;;;4357504;32;20159;-79
2021/08/05 03:31:48;;;;;;;19.77;16.50;;;;;;;;;;4357013;32;20525;-79
2021/08/05 03:34:35;;;;;;;21.92;17.45;;;;;;;;;;4356622;32;20177;-79
2021/08/05 03:37:01;;;;;;;15.60;13.20;;;;;;;;;;4357192;32;20240;-80
2021/08/05 03:39:36;;;;;;;17.35;14.95;;;;;;;;;;4357128;32;20233;-80
2021/08/05 03:42:01;;;;;;;19.85;16.12;;;;;;;;;;4358950;32;20162;-79
2021/08/05 03:44:27;;;;;;;21.35;15.05;;;;;;;;;;4359506;32;20354;-80
2021/08/05 03:46:52;;;;;;;17.42;14.02;;;;;;;;;;4358054;32;20189;-80
2021/08/05 03:49:17;;;;;;;17.12;14.35;;;;;;;;;;4359849;32;20155;-80
2021/08/05 03:51:49;;;;;;;15.93;13.18;;;;;;;;;;4411159;32;20514;-79
2021/08/05 03:54:37;;;;;;;20.20;14.85;;;;;;;;;;4410650;32;20248;-79
2021/08/05 03:57:03;;;;;;;19.25;13.38;;;;;;;;;;4362506;32;20175;-80
2021/08/05 03:59:28;;;;;;;14.85;12.95;;;;;;;;;;4410817;32;20197;-80
2021/08/05 04:01:53;;;;;;;16.02;12.27;;;;;;;;;;4362260;32;20159;-79
2021/08/05 04:04:18;;;;;;;18.58;15.18;;;;;;;;;;4346019;33;20511;-80
2021/08/05 04:06:44;;;;;;;19.33;15.55;;;;;;;;;;4346121;32;20193;-78
2021/08/05 04:09:09;;;;;;;19.05;15.75;;;;;;;;;;4346049;33;20239;-78
2021/08/05 04:11:43;;;;;;;17.60;14.45;;;;;;;;;;4346466;32;20232;-78
2021/08/05 04:14:17;;;;;;;20.92;16.65;;;;;;;;;;4346361;33;20181;-79
2021/08/05 04:16:46;;;;;;;18.02;14.60;;;;;;;;;;4346559;33;20164;-80
2021/08/05 04:19:20;;;;;;;17.00;14.68;;;;;;;;;;4355997;33;20174;-80
2021/08/05 04:21:50;;;;;;;16.73;13.77;;;;;;;;;;4359368;32;20212;-80
2021/08/05 04:24:22;;;;;;;19.50;14.98;;;;;;;;;;4358753;32;20588;-81
2021/08/05 04:26:56;;;;;;;18.75;15.73;;;;;;;;;;4358684;32;20606;-80
2021/08/05 04:29:21;;;;;;;23.33;18.73;;;;;;;;;;4359634;32;20219;-79
2021/08/05 04:31:47;;;;;;;25.15;18.20;;;;;;;;;;4358088;32;20166;-80
2021/08/05 04:34:12;;;;;;;22.25;17.95;;;;;;;;;;4358448;32;20159;-79
2021/08/05 04:36:37;;;;;;;24.33;19.30;;;;;;;;;;4353687;32;20166;-77
2021/08/05 04:39:03;;;;;;;28.80;23.23;;;;;;;;;;4345671;32;20167;-80
2021/08/05 04:41:30;;;;;;;29.77;23.92;;;;;;;;;;4332457;32;20284;-79
2021/08/05 04:43:58;;;;;;;31.25;25.90;;;;;;;;;;4358965;32;20147;-78
2021/08/05 04:46:24;;;;;;;28.08;23.52;;;;;;;;;;4345003;32;20637;-76
2021/08/05 04:48:51;;;;;;;32.03;26.80;;;;;;;;;;4345404;32;20227;-79
2021/08/05 04:51:23;;;;;;;28.30;24.05;;;;;;;;;;4344894;32;20159;-78
2021/08/05 04:53:48;;;;;;;30.55;23.92;;;;;;;;;;4346360;32;20182;-78
2021/08/05 04:56:22;;;;;;;30.30;23.73;;;;;;;;;;4345509;32;20604;-79
2021/08/05 04:58:50;;;;;;;31.65;25.48;;;;;;;;;;4345836;32;20200;-79
2021/08/05 05:01:23;;;;;;;29.75;24.12;;;;;;;;;;4345839;32;20156;-80
2021/08/05 05:03:49;;;;;;;27.73;24.27;;;;;;;;;;4345520;33;20174;-78
2021/08/05 05:06:18;;;;;;;32.95;28.15;;;;;;;;;;4345377;32;20209;-81
2021/08/05 05:08:46;;;;;;;34.05;28.50;;;;;;;;;;4346600;32;20220;-80
2021/08/05 05:11:11;;;;;;;31.10;26.05;;;;;;;;;;4359196;32;20183;-79
2021/08/05 05:13:53;;;;;;;37.47;29.90;;;;;;;;;;4345392;32;20190;-79
2021/08/05 05:16:28;;;;;;;35.72;29.33;;;;;;;;;;4335769;33;20283;-79
2021/08/05 05:19:08;;;;;;;38.72;29.80;;;;;;;;;;4331346;33;20200;-78
2021/08/05 05:21:34;;;;;;;38.30;32.63;;;;;;;;;;4342375;32;20158;-78
2021/08/05 05:24:02;;;;;;;36.90;28.62;;;;;;;;;;4407525;32;20173;-76
2021/08/05 05:26:27;;;;;;;30.05;25.30;;;;;;;;;;4394187;32;20259;-79
2021/08/05 05:28:55;;;;;;;34.72;28.62;;;;;;;;;;4358223;32;20151;-79
2021/08/05 05:31:21;;;;;;;37.63;30.10;;;;;;;;;;4330556;32;20195;-79
2021/08/05 05:33:46;;;;;;;34.42;26.95;;;;;;;;;;4337515;32;20238;-79
2021/08/05 05:36:11;;;;;;;30.30;25.95;;;;;;;;;;4330164;32;20155;-79
2021/08/05 05:38:37;;;;;;;38.25;29.05;;;;;;;;;;4331019;32;20487;-79
2021/08/05 05:41:02;;;;;;;32.65;26.77;;;;;;;;;;4330383;32;20182;-79
2021/08/05 05:43:35;;;;;;;29.80;26.10;;;;;;;;;;4330696;32;20177;-80
2021/08/05 05:46:02;;;;;;;29.73;25.95;;;;;;;;;;4344829;32;20149;-80
2021/08/05 05:48:28;;;;;;;31.08;25.60;;;;;;;;;;4330219;32;20178;-79
2021/08/05 05:50:53;;;;;;;27.13;23.90;;;;;;;;;;4330927;32;20593;-80
2021/08/05 05:53:19;;;;;;;31.10;25.25;;;;;;;;;;4330180;33;20175;-78
2021/08/05 05:55:44;;;;;;;30.35;24.45;;;;;;;;;;4330193;32;20242;-79
2021/08/05 05:58:10;;;;;;;30.65;25.10;;;;;;;;;;4330351;32;20595;-79
2021/08/05 06:00:35;;;;;;;31.30;24.48;;;;;;;;;;4330098;32;20198;-79
2021/08/05 06:03:08;;;;;;;26.98;21.92;;;;;;;;;;4330114;32;20254;-79
2021/08/05 06:05:36;;;;;;;29.65;24.55;;;;;;;;;;4330290;32;20168;-79
2021/08/05 06:08:01;;;;;;;29.12;23.73;;;;;;;;;;4329875;33;20154;-79
2021/08/05 06:10:27;;;;;;;27.98;24.92;;;;;;;;;;4330043;32;20177;-80
2021/08/05 06:12:52;;;;;;;29.75;24.85;;;;;;;;;;4330039;32;20156;-80
2021/08/05 06:15:18;;;;;;;30.60;25.20;;;;;;;;;;4330052;32;20159;-79
2021/08/05 06:17:45;;;;;;;32.05;27.00;;;;;;;;;;4330591;32;20163;-79
2021/08/05 06:20:11;;;;;;;31.50;26.17;;;;;;;;;;4342026;32;20280;-79
2021/08/05 06:22:37;;;;;;;32.50;26.92;;;;;;;;;;4342013;32;20558;-78
2021/08/05 06:25:03;;;;;;;30.33;25.33;;;;;;;;;;4342146;32;20198;-79
2021/08/05 06:27:29;;;;;;;27.75;23.80;;;;;;;;;;4342330;32;20205;-81
2021/08/05 06:29:54;;;;;;;28.85;24.63;;;;;;;;;;4342162;32;20208;-79
2021/08/05 06:32:22;;;;;;;30.02;23.12;;;;;;;;;;4341899;32;20232;-81
2021/08/05 06:35:02;;;;;;;28.90;24.70;;;;;;;;;;4342085;32;20151;-80
2021/08/05 06:37:31;;;;;;;28.00;23.62;;;;;;;;;;4342141;33;20185;-81
2021/08/05 06:40:06;;;;;;;28.48;23.98;;;;;;;;;;4341941;32;20164;-79
2021/08/05 06:42:32;;;;;;;26.40;22.70;;;;;;;;;;4342240;32;20155;-80
2021/08/05 06:45:00;;;;;;;26.15;22.33;;;;;;;;;;4341880;32;20172;-79
2021/08/05 06:47:35;;;;;;;34.10;23.35;;;;;;;;;;4342048;32;20160;-79
2021/08/05 06:50:11;;;;;;;28.98;22.65;;;;;;;;;;4343867;32;20233;-80
2021/08/05 06:52:37;;;;;;;29.92;22.52;;;;;;;;;;4367580;32;20163;-79
2021/08/05 06:55:05;;;;;;;26.37;20.88;;;;;;;;;;4344661;32;20163;-80
2021/08/05 06:57:31;;;;;;;30.88;24.08;;;;;;;;;;4344504;32;20198;-80
2021/08/05 07:00:18;;;;;;;26.20;21.77;;;;;;;;;;4353466;32;20183;-81
2021/08/05 07:02:53;;;;;;;31.17;21.42;;;;;;;;;;4353031;33;20238;-79
2021/08/05 07:05:28;;;;;;;24.67;20.02;;;;;;;;;;4401268;32;20158;-81
2021/08/05 07:07:57;;;;;;;24.45;20.95;;;;;;;;;;4376015;32;20157;-81
2021/08/05 07:10:30;;;;;;;22.20;19.80;;;;;;;;;;4362757;32;20541;-79
2021/08/05 07:12:56;;;;;;;21.55;19.33;;;;;;;;;;4358511;32;20167;-81
2021/08/05 07:15:22;;;;;;;20.98;17.48;;;;;;;;;;4361407;32;20177;-81
2021/08/05 07:17:47;;;;;;;23.83;17.23;;;;;;;;;;4356757;32;20169;-80
2021/08/05 07:20:15;;;;;;;18.45;16.55;;;;;;;;;;4418198;32;20161;-80
2021/08/05 07:22:57;;;;;;;20.02;17.55;;;;;;;;;;4409127;32;20607;-81
2021/08/05 07:25:31;;;;;;;19.23;17.08;;;;;;;;;;4402001;32;20169;-81
2021/08/05 07:28:01;;;;;;;21.58;17.62;;;;;;;;;;4409772;32;20185;-80
2021/08/05 07:30:30;;;;;;;21.05;16.95;;;;;;;;;;4408979;32;20162;-80
2021/08/05 07:33:09;;;;;;;;;;;;;;;;;;;;;
2021/08/05 07:35:35;;;;;;;19.50;16.25;;;;;;;;;;4430667;32;20168;-79
2021/08/05 07:38:34;;;;;;;17.62;15.55;;;;;;;;;;4423934;32;20594;-80
2021/08/05 07:41:05;;;;;;;24.23;17.30;;;;;;;;;;4424594;32;20206;-81
2021/08/05 07:43:33;;;;;;;18.37;16.17;;;;;;;;;;4425147;32;20250;-81
2021/08/05 07:46:04;;;;;;;20.20;16.62;;;;;;;;;;4424203;32;20153;-80
2021/08/05 07:48:30;;;;;;;17.92;15.95;;;;;;;;;;4424626;32;20623;-80
2021/08/05 07:54:35;;;;;;;17.12;15.32;;;;;;;;;;4390530;32;20162;-80
2021/08/05 07:57:01;;;;;;;15.25;13.60;;;;;;;;;;4423078;32;20228;-80
2021/08/05 07:59:29;;;;;;;16.23;14.52;;;;;;;;;;4423823;32;20205;-79
2021/08/05 08:01:57;;;;;;;16.95;14.73;;;;;;;;;;4423742;32;20154;-80
2021/08/05 08:04:25;;;;;;;18.83;14.48;;;;;;;;;;4423434;32;20157;-81
2021/08/05 08:07:04;;;;;;;15.35;13.75;;;;;;;;;;4423629;32;20271;-80
2021/08/05 08:09:32;;;;;;;14.32;12.80;;;;;;;;;;4410721;32;20157;-81
2021/08/05 08:12:16;;;;;;;14.73;12.70;;;;;;;;;;4406708;32;20162;-80
2021/08/05 08:14:41;;;;;;;14.80;12.75;;;;;;;;;;4405980;32;20200;-78
2021/08/05 08:17:09;;;;;;;14.48;10.88;;;;;;;;;;4405633;32;20484;-79
2021/08/05 08:19:43;;;;;;;13.05;11.43;;;;;;;;;;4329345;32;20175;-79
2021/08/05 08:22:09;;;;;;;12.82;10.35;;;;;;;;;;4329863;33;20152;-79
2021/08/05 08:24:52;;;;;;;10.55;9.45;;;;;;;;;;4330709;33;20140;-80
2021/08/05 08:27:40;;;;;;;10.90;9.80;;;;;;;;;;4328730;33;20160;-81
2021/08/05 08:30:15;;;;;;;10.90;9.75;;;;;;;;;;4335379;33;20171;-80
2021/08/05 08:33:05;;;;;;;12.75;11.00;;;;;;;;;;4345961;32;20186;-80
2021/08/05 08:35:37;;;;;;;14.00;9.50;;;;;;;;;;4345926;32;20694;-80
2021/08/05 08:38:04;;;;;;;17.23;11.05;;;;;;;;;;4346067;32;20155;-76
2021/08/05 08:40:30;;;;;;;13.52;10.95;;;;;;;;;;4345609;33;20171;-81
2021/08/05 08:43:05;;;;;;;13.77;12.37;;;;;;;;;;4344302;33;20429;-80
2021/08/05 08:45:47;;;;;;;14.05;12.43;;;;;;;;;;4337827;32;20179;-81
2021/08/05 08:48:30;;;;;;;13.25;11.95;;;;;;;;;;4335619;32;20182;-80
2021/08/05 08:51:00;;;;;;;12.37;11.07;;;;;;;;;;4333792;32;20189;-81
2021/08/05 08:53:37;;;;;;;13.68;11.10;;;;;;;;;;4345507;32;20216;-80
2021/08/05 08:56:20;;;;;;;13.60;10.93;;;;;;;;;;4359587;32;20529;-81
2021/08/05 08:58:45;;;;;;;10.77;9.43;;;;;;;;;;4346197;32;20147;-82
2021/08/05 09:01:11;;;;;;;13.75;9.32;;;;;;;;;;4345978;33;20220;-81
2021/08/05 09:03:36;;;;;;;11.52;10.32;;;;;;;;;;4345541;33;20155;-79
2021/08/05 09:06:01;;;;;;;11.20;10.00;;;;;;;;;;4345750;33;20178;-80
2021/08/05 09:08:27;;;;;;;13.05;11.15;;;;;;;;;;4345444;33;20234;-80
2021/08/05 09:10:56;;;;;;;10.20;9.20;;;;;;;;;;4345421;32;20620;-80
2021/08/05 09:13:24;;;;;;;16.67;10.05;;;;;;;;;;4345222;32;20281;-80
2021/08/05 09:15:49;;;;;;;9.35;7.53;;;;;;;;;;4345340;32;20174;-79
2021/08/05 09:18:32;;;;;;;9.63;8.40;;;;;;;;;;4345308;32;20577;-80
2021/08/05 09:21:07;;;;;;;10.02;9.05;;;;;;;;;;4345005;32;20211;-80
2021/08/05 09:23:50;;;;;;;9.65;7.95;;;;;;;;;;4345526;33;20571;-81
2021/08/05 09:26:36;;;;;;;9.00;8.10;;;;;;;;;;4345010;32;20159;-80
2021/08/05 09:29:10;;;;;;;10.73;7.90;;;;;;;;;;4345038;33;20155;-79
2021/08/05 09:31:58;;;;;;;9.90;7.37;;;;;;;;;;4346665;32;20155;-80
2021/08/05 09:34:31;;;;;;;7.78;6.97;;;;;;;;;;4345577;33;20237;-80
2021/08/05 09:37:00;;;;;;;11.52;8.80;;;;;;;;;;4348490;32;20163;-81
2021/08/05 09:39:27;;;;;;;10.35;8.40;;;;;;;;;;4345285;32;20163;-80
2021/08/05 09:42:00;;;;;;;10.80;8.82;;;;;;;;;;4345696;32;20201;-82
2021/08/05 09:44:27;;;;;;;11.35;8.65;;;;;;;;;;4344883;32;20152;-81
2021/08/05 09:47:06;;;;;;;10.48;7.28;;;;;;;;;;4343931;32;20212;-80
2021/08/05 09:49:34;;;;;;;9.35;7.53;;;;;;;;;;4344896;32;20243;-80
2021/08/05 09:52:06;;;;;;;12.77;9.98;;;;;;;;;;4344888;32;20503;-79
2021/08/05 09:54:36;;;;;;;11.57;10.10;;;;;;;;;;4358975;32;20128;-81
2021/08/05 09:57:12;;;;;;;12.65;10.40;;;;;;;;;;4345660;32;20197;-81
2021/08/05 09:59:58;;;;;;;13.48;12.07;;;;;;;;;;4394604;32;20217;-80
2021/08/05 10:02:25;;;;;;;14.93;11.88;;;;;;;;;;4386382;32;20163;-80
2021/08/05 10:04:53;;;;;;;18.10;14.57;;;;;;;;;;4393964;32;20156;-79
2021/08/05 10:07:20;;;;;;;13.68;12.00;;;;;;;;;;4393873;32;20230;-80
2021/08/05 10:09:56;;;;;;;13.75;12.27;;;;;;;;;;4343510;33;20136;-81
2021/08/05 10:12:31;;;;;;;12.23;10.93;;;;;;;;;;4393669;32;20191;-81
2021/08/05 10:15:07;;;;;;;15.32;12.05;;;;;;;;;;4393752;32;20151;-79
2021/08/05 10:17:33;;;;;;;16.70;12.90;;;;;;;;;;4404908;32;20165;-80
2021/08/05 10:19:59;;;;;;;15.68;12.48;;;;;;;;;;4406546;32;20219;-82
2021/08/05 10:22:25;;;;;;;12.77;11.45;;;;;;;;;;4406356;32;20583;-81
2021/08/05 10:24:51;;;;;;;14.70;11.63;;;;;;;;;;4406331;32;20243;-81
2021/08/05 10:27:17;;;;;;;12.27;10.82;;;;;;;;;;4406718;32;20180;-78
2021/08/05 10:29:42;;;;;;;13.27;11.18;;;;;;;;;;4406493;32;20153;-80
2021/08/05 10:32:08;;;;;;;12.30;10.80;;;;;;;;;;4406425;32;20605;-81
2021/08/05 10:34:34;;;;;;;11.27;10.07;;;;;;;;;;4407123;32;20617;-82
2021/08/05 10:37:01;;;;;;;14.25;10.98;;;;;;;;;;4406691;32;20581;-81
2021/08/05 10:39:27;;;;;;;12.18;9.82;;;;;;;;;;4406726;32;20184;-81
2021/08/05 10:41:52;;;;;;;12.88;10.60;;;;;;;;;;4406918;32;20150;-79
2021/08/05 10:44:17;;;;;;;14.00;10.57;;;;;;;;;;4406859;32;20462;-80
2021/08/05 10:46:43;;;;;;;13.85;11.82;;;;;;;;;;4406131;32;20169;-81
2021/08/05 10:49:10;;;;;;;11.52;9.95;;;;;;;;;;4407042;32;20154;-81
2021/08/05 10:51:36;;;;;;;10.75;9.68;;;;;;;;;;4409478;32;20153;-82
2021/08/05 10:54:04;;;;;;;11.45;10.25;;;;;;;;;;4417506;32;20203;-80
2021/08/05 10:56:30;;;;;;;13.05;11.30;;;;;;;;;;4424867;32;20165;-80
2021/08/05 10:59:16;;;;;;;11.40;10.18;;;;;;;;;;4424633;32;20146;-80
2021/08/05 11:01:50;;;;;;;12.75;11.10;;;;;;;;;;4424862;32;20185;-81
2021/08/05 11:04:34;;;;;;;11.70;10.00;;;;;;;;;;4424469;32;20217;-80
2021/08/05 11:07:19;;;;;;;12.27;10.50;;;;;;;;;;4424177;32;20262;-81
2021/08/05 11:09:48;;;;;;;11.82;9.88;;;;;;;;;;4424786;32;20176;-81
2021/08/05 11:12:33;;;;;;;10.02;8.90;;;;;;;;;;4439148;32;20526;-81
2021/08/05 11:14:59;;;;;;;12.05;9.95;;;;;;;;;;4424408;32;20222;-82
2021/08/05 11:17:24;;;;;;;12.52;11.23;;;;;;;;;;4418316;32;20509;-81
2021/08/05 11:20:09;;;;;;;10.90;9.77;;;;;;;;;;4361303;32;20234;-81
2021/08/05 11:22:34;;;;;;;11.15;9.95;;;;;;;;;;4361611;32;20193;-81
2021/08/05 11:25:00;;;;;;;11.95;10.20;;;;;;;;;;4361254;32;20567;-82
2021/08/05 11:27:25;;;;;;;11.35;10.15;;;;;;;;;;4361156;32;20601;-82
2021/08/05 11:29:51;;;;;;;13.68;10.68;;;;;;;;;;4361587;32;20595;-81
2021/08/05 11:32:26;;;;;;;10.57;9.48;;;;;;;;;;4361255;32;20444;-80
2021/08/05 11:35:04;;;;;;;10.68;9.57;;;;;;;;;;4361040;32;20225;-80
2021/08/05 11:37:29;;;;;;;11.50;10.30;;;;;;;;;;4361674;32;20151;-82
2021/08/05 11:39:56;;;;;;;11.55;9.77;;;;;;;;;;4361029;32;20167;-82
2021/08/05 11:42:22;;;;;;;10.43;8.80;;;;;;;;;;4348845;32;20647;-81
2021/08/05 11:44:57;;;;;;;11.57;10.38;;;;;;;;;;4361068;32;20193;-81
2021/08/05 11:47:27;;;;;;;12.37;10.50;;;;;;;;;;4354151;32;20166;-82
2021/08/05 11:49:57;;;;;;;11.60;10.13;;;;;;;;;;4361322;32;20155;-80
2021/08/05 11:52:23;;;;;;;12.35;10.98;;;;;;;;;;4353239;33;20159;-79
2021/08/05 11:54:51;;;;;;;13.52;11.98;;;;;;;;;;4346601;32;20189;-82
2021/08/05 11:57:19;;;;;;;13.30;11.73;;;;;;;;;;4360563;32;20154;-81
2021/08/05 11:59:51;;;;;;;13.88;11.45;;;;;;;;;;4348922;32;20228;-81
2021/08/05 12:02:20;;;;;;;16.35;13.23;;;;;;;;;;4344680;32;20291;-81
2021/08/05 12:04:48;;;;;;;15.20;13.62;;;;;;;;;;4360203;32;20174;-80
2021/08/05 12:07:23;;;;;;;14.20;12.37;;;;;;;;;;4334613;32;20199;-81
2021/08/05 12:10:01;;;;;;;12.68;11.38;;;;;;;;;;4355983;32;20631;-80
2021/08/05 12:12:49;;;;;;;13.02;11.68;;;;;;;;;;4346530;33;20142;-82
2021/08/05 12:15:17;;;;;;;10.73;9.63;;;;;;;;;;4345813;33;20170;-81
2021/08/05 12:17:50;;;;;;;11.48;10.35;;;;;;;;;;4345416;32;20168;-82
2021/08/05 12:20:17;;;;;;;11.95;9.93;;;;;;;;;;4346132;32;20163;-82
2021/08/05 12:22:44;;;;;;;12.70;10.05;;;;;;;;;;4346508;32;20178;-81
2021/08/05 12:25:33;;;;;;;11.88;10.57;;;;;;;;;;4346209;33;20163;-81
2021/08/05 12:27:59;;;;;;;12.63;11.32;;;;;;;;;;4344458;33;20190;-78
2021/08/05 12:30:37;;;;;;;11.40;9.48;;;;;;;;;;4347569;33;20185;-81
2021/08/05 12:33:32;;;;;;;15.82;10.27;;;;;;;;;;4347922;32;20238;-81
2021/08/05 12:36:17;;;;;;;11.48;8.98;;;;;;;;;;4351334;32;20232;-83
2021/08/05 12:38:56;;;;;;;11.45;10.25;;;;;;;;;;4358303;32;20224;-81
2021/08/05 12:41:36;;;;;;;11.52;10.32;;;;;;;;;;4345237;33;20210;-82
2021/08/05 12:44:09;;;;;;;10.75;9.65;;;;;;;;;;4345373;32;20208;-82
2021/08/05 12:46:35;;;;;;;10.07;8.57;;;;;;;;;;4345070;32;20612;-81
2021/08/05 12:49:03;;;;;;;10.48;9.07;;;;;;;;;;4355050;32;20194;-81
2021/08/05 12:51:34;;;;;;;8.80;7.70;;;;;;;;;;4347807;32;20215;-81
2021/08/05 12:54:18;;;;;;;13.68;8.93;;;;;;;;;;4360224;32;20181;-82
2021/08/05 12:56:44;;;;;;;9.55;8.55;;;;;;;;;;4358943;32;20197;-82
2021/08/05 12:59:09;;;;;;;9.80;8.70;;;;;;;;;;4360587;32;20596;-84
2021/08/05 13:01:35;;;;;;;10.88;9.13;;;;;;;;;;4360413;32;20632;-82
2021/08/05 13:04:01;;;;;;;15.30;12.73;;;;;;;;;;4360179;32;20258;-81
2021/08/05 13:06:48;;;;;;;11.93;10.48;;;;;;;;;;4360323;32;20622;-82
2021/08/05 13:09:13;;;;;;;11.65;8.32;;;;;;;;;;4360028;32;20588;-81
2021/08/05 13:11:39;;;;;;;8.45;7.37;;;;;;;;;;4359381;32;20194;-84
2021/08/05 13:14:05;;;;;;;8.85;7.95;;;;;;;;;;4359949;32;20162;-83
2021/08/05 13:16:34;;;;;;;9.65;8.65;;;;;;;;;;4360243;32;20167;-82
2021/08/05 13:19:05;;;;;;;11.77;9.02;;;;;;;;;;4360090;32;20198;-82
2021/08/05 13:21:36;;;;;;;8.75;7.47;;;;;;;;;;4359882;32;20265;-84
2021/08/05 13:24:20;;;;;;;9.25;7.70;;;;;;;;;;4360444;32;20190;-82
2021/08/05 13:27:18;;;;;;;8.02;7.22;;;;;;;;;;4360051;32;20170;-82
2021/08/05 13:29:46;;;;;;;9.55;8.45;;;;;;;;;;4359364;32;20596;-82
2021/08/05 13:32:41;;;;;;;11.40;10.20;;;;;;;;;;4359764;32;20187;-82
2021/08/05 13:35:24;;;;;;;12.98;11.35;;;;;;;;;;4372593;32;20174;-82
2021/08/05 13:38:03;;;;;;;12.60;9.77;;;;;;;;;;4359282;32;20274;-81
2021/08/05 13:40:32;;;;;;;13.15;10.93;;;;;;;;;;4359360;32;20189;-82
2021/08/05 13:43:08;;;;;;;14.32;12.82;;;;;;;;;;4359776;32;20570;-83
2021/08/05 13:45:34;;;;;;;10.88;9.10;;;;;;;;;;4359715;32;20163;-82
2021/08/05 13:48:03;;;;;;;9.65;8.65;;;;;;;;;;4373804;32;20135;-83
2021/08/05 13:50:33;;;;;;;12.93;10.93;;;;;;;;;;4359925;32;20163;-83
2021/08/05 13:53:16;;;;;;;;;;;;;;;;;;;;;
2021/08/05 13:55:42;;;;;;;15.95;12.55;;;;;;;;;;4361734;32;20196;-82
2021/08/05 13:58:15;;;;;;;13.95;12.32;;;;;;;;;;4359789;32;20155;-82
2021/08/05 14:00:41;;;;;;;13.45;12.05;;;;;;;;;;4359471;32;20200;-82
2021/08/05 14:03:12;;;;;;;14.23;11.90;;;;;;;;;;4359175;32;20529;-83
2021/08/05 14:05:40;;;;;;;13.85;10.88;;;;;;;;;;4359958;32;20154;-81
2021/08/05 14:08:06;;;;;;;15.48;12.02;;;;;;;;;;4359202;32;20454;-81
2021/08/05 14:10:35;;;;;;;15.50;12.55;;;;;;;;;;4357556;32;20212;-81
2021/08/05 14:13:03;;;;;;;13.88;12.48;;;;;;;;;;4372862;32;20713;-82
2021/08/05 14:15:32;;;;;;;13.68;11.85;;;;;;;;;;4347408;32;20154;-81
2021/08/05 14:18:09;;;;;;;14.68;12.02;;;;;;;;;;4354418;33;20171;-81
2021/08/05 14:20:49;;;;;;;13.73;11.63;;;;;;;;;;4353374;32;20524;-83
2021/08/05 14:23:53;;;;;;;14.13;11.90;;;;;;;;;;4357416;32;20163;-83
2021/08/05 14:29:12;;;;;;;16.58;13.88;;;;;;;;;;4342265;33;20619;-82
2021/08/05 14:31:48;;;;;;;15.70;12.60;;;;;;;;;;4385831;32;20189;-79
2021/08/05 14:34:14;;;;;;;14.13;11.20;;;;;;;;;;4391478;32;20154;-82
2021/08/05 14:36:40;;;;;;;14.65;11.57;;;;;;;;;;4391564;32;20177;-82
2021/08/05 14:39:35;;;;;;;15.88;14.07;;;;;;;;;;4405811;32;20130;-81
2021/08/05 14:42:34;;;;;;;;;;;;;;;;;;;;;
2021/08/05 14:45:06;;;;;;;16.62;14.05;;;;;;;;;;4398390;32;20162;-83
2021/08/05 14:47:31;;;;;;;18.85;14.93;;;;;;;;;;4391719;32;20181;-82
2021/08/05 14:49:59;;;;;;;15.48;13.68;;;;;;;;;;4391204;32;20162;-83
2021/08/05 14:52:47;;;;;;;18.23;15.95;;;;;;;;;;4391201;32;20166;-84